PWSweather.com
Personal Weather Stations
Station Observations
KPAMECHA5
Mechanicsburg, PA 17050

Mechanicsburg, PA 17050

Lat: 40.21531, Lon: -77.0395

Elevation: 430

Station Type: Davis 6322

http://MechanicsburgWeather.com

Latest ConditionsUpdated 10:00:05 PM EDT Tuesday, Sep 2, 2014
Currently Today's Max Today's Min Today's Average
Temperature 74.9°F23.8°C 89.8°F32.1°C 68.7°F20.4°C 77.6°F25.3°C
Dew Point 71.7°F22.1°C 76.6°F24.8°C 68.4°F20.2°C 72.4°F22.4°C
Winds 0.8 mph NW1.3 kmh NW 6.4 mph SSE10.3 kmh SSE - 1.1 mph 1.8 kmh
Wind Gusts 3.0 mph4.8 kmh 12.0 mph19.3 kmh - -
Humidity 90% 100% 62% 85%
Pressure 29.85 in1010.8 mb 29.90 in1012.5 mb 29.76 in1007.8 mb -
Precipitation - 0.07 in1.8 mm - -
Hour Temp Dew Point Humidity Winds Wind Gusts Pressure Precip Precip Rate Daily Precip Total
10:00 PM 74.9°F23.8°C 71.7°F22.1°C 90% 0.8 mph NW1.3 kmh NW 3.0 mph4.8 kmh 29.85 in1010.8 mb 0.02 in0.5 mm 0.02 in/hr0.5 mm/hr 0.07 in1.8 mm
09:50 PM 74.9°F23.8°C 71.8°F22.1°C 90% 0.3 mph NW0.5 kmh NW 1.0 mph1.6 kmh 29.84 in1010.5 mb 0.01 in0.3 mm 0.06 in/hr1.5 mm/hr 0.06 in1.5 mm
09:40 PM 74.4°F23.6°C 71.3°F21.8°C 90% Calm Calm 1.0 mph1.6 kmh 29.84 in1010.5 mb 0.00 in0.0 mm 0.00 in/hr0.0 mm/hr 0.05 in1.3 mm
09:30 PM 73.6°F23.1°C 71.1°F21.7°C 92% 0.8 mph NW1.3 kmh NW 4.0 mph6.4 kmh 29.84 in1010.5 mb 0.00 in0.0 mm 0.00 in/hr0.0 mm/hr 0.05 in1.3 mm
09:20 PM 72.6°F22.6°C 70.7°F21.5°C 94% 2.0 mph NW3.2 kmh NW 7.0 mph11.3 kmh 29.83 in1010.2 mb 0.00 in0.0 mm 0.00 in/hr0.0 mm/hr 0.05 in1.3 mm
09:10 PM 71.9°F22.2°C 70.3°F21.3°C 95% 2.5 mph NW4.0 kmh NW 5.0 mph8.0 kmh 29.82 in1009.8 mb 0.00 in0.0 mm 0.00 in/hr0.0 mm/hr 0.05 in1.3 mm
09:00 PM 71.8°F22.1°C 70.0°F21.1°C 94% Calm Calm -- 29.81 in1009.5 mb 0.00 in0.0 mm 0.00 in/hr0.0 mm/hr 0.05 in1.3 mm
08:50 PM 72.1°F22.3°C 70.0°F21.1°C 93% Calm Calm -- 29.81 in1009.5 mb 0.00 in0.0 mm 0.00 in/hr0.0 mm/hr 0.05 in1.3 mm
08:40 PM 72.4°F22.4°C 69.9°F21.1°C 92% Calm Calm -- 29.80 in1009.1 mb 0.00 in0.0 mm 0.00 in/hr0.0 mm/hr 0.05 in1.3 mm
08:30 PM 72.7°F22.6°C 70.3°F21.3°C 92% Calm Calm -- 29.80 in1009.1 mb 0.00 in0.0 mm 0.00 in/hr0.0 mm/hr 0.05 in1.3 mm
08:20 PM 73.0°F22.8°C 70.2°F21.2°C 91% Calm Calm -- 29.79 in1008.8 mb 0.00 in0.0 mm 0.00 in/hr0.0 mm/hr 0.05 in1.3 mm
08:10 PM 73.3°F22.9°C 70.5°F21.4°C 91% Calm Calm -- 29.78 in1008.5 mb 0.00 in0.0 mm 0.00 in/hr0.0 mm/hr 0.05 in1.3 mm
08:00 PM 73.5°F23.1°C 70.8°F21.6°C 91% Calm Calm -- 29.78 in1008.5 mb 0.00 in0.0 mm 0.00 in/hr0.0 mm/hr 0.05 in1.3 mm
07:50 PM 73.9°F23.3°C 70.5°F21.4°C 89% Calm Calm -- 29.77 in1008.1 mb 0.00 in0.0 mm 0.00 in/hr0.0 mm/hr 0.05 in1.3 mm
07:40 PM 74.2°F23.4°C 70.7°F21.5°C 89% Calm Calm -- 29.77 in1008.1 mb 0.00 in0.0 mm 0.00 in/hr0.0 mm/hr 0.05 in1.3 mm
07:30 PM 74.5°F23.6°C 70.7°F21.5°C 88% Calm Calm 1.0 mph1.6 kmh 29.77 in1008.1 mb 0.00 in0.0 mm 0.00 in/hr0.0 mm/hr 0.05 in1.3 mm
07:20 PM 74.8°F23.8°C 70.7°F21.5°C 87% 0.1 mph WSW0.2 kmh WSW -- 29.77 in1008.1 mb 0.00 in0.0 mm 0.00 in/hr0.0 mm/hr 0.05 in1.3 mm
07:10 PM 74.9°F23.8°C 70.8°F21.6°C 87% Calm Calm 1.0 mph1.6 kmh 29.77 in1008.1 mb 0.00 in0.0 mm 0.00 in/hr0.0 mm/hr 0.05 in1.3 mm
07:00 PM 74.9°F23.8°C 70.4°F21.3°C 86% 1.3 mph SW2.1 kmh SW 3.0 mph4.8 kmh 29.77 in1008.1 mb 0.00 in0.0 mm 0.00 in/hr0.0 mm/hr 0.05 in1.3 mm
06:50 PM 74.9°F23.8°C 70.4°F21.3°C 86% 0.6 mph SW1.0 kmh SW 3.0 mph4.8 kmh 29.77 in1008.1 mb 0.00 in0.0 mm 0.00 in/hr0.0 mm/hr 0.05 in1.3 mm
06:40 PM 75.2°F24.0°C 70.4°F21.3°C 85% 0.2 mph S0.3 kmh S -- 29.76 in1007.8 mb 0.00 in0.0 mm 0.00 in/hr0.0 mm/hr 0.05 in1.3 mm
06:30 PM 75.5°F24.2°C 70.4°F21.3°C 84% 1.9 mph SW3.1 kmh SW 6.0 mph9.7 kmh 29.77 in1008.1 mb 0.00 in0.0 mm 0.00 in/hr0.0 mm/hr 0.05 in1.3 mm
06:20 PM 76.4°F24.7°C 71.5°F21.9°C 85% 1.6 mph SW2.6 kmh SW 9.0 mph14.5 kmh 29.77 in1008.1 mb 0.00 in0.0 mm 0.00 in/hr0.0 mm/hr 0.05 in1.3 mm
06:10 PM 77.7°F25.4°C 72.5°F22.5°C 84% 0.4 mph SSW0.6 kmh SSW 2.0 mph3.2 kmh 29.77 in1008.1 mb 0.01 in0.3 mm 0.06 in/hr1.5 mm/hr 0.05 in1.3 mm
06:00 PM 80.2°F26.8°C 73.4°F23.0°C 80% 6.3 mph WSW10.1 kmh WSW 12.0 mph19.3 kmh 29.79 in1008.8 mb 0.04 in1.0 mm 0.05 in/hr1.3 mm/hr 0.04 in1.0 mm
05:50 PM 81.9°F27.7°C 74.4°F23.6°C 78% 6.4 mph SSE10.3 kmh SSE 9.0 mph14.5 kmh 29.77 in1008.1 mb 0.00 in0.0 mm 0.00 in/hr0.0 mm/hr 0.00 in0.0 mm
05:40 PM 83.0°F28.3°C 74.3°F23.5°C 75% 6.3 mph S10.1 kmh S 10.0 mph16.1 kmh 29.76 in1007.8 mb 0.00 in0.0 mm 0.00 in/hr0.0 mm/hr 0.00 in0.0 mm
05:30 PM 84.1°F28.9°C 74.5°F23.6°C 73% 2.0 mph S3.2 kmh S 2.0 mph3.2 kmh 29.76 in1007.8 mb 0.00 in0.0 mm 0.00 in/hr0.0 mm/hr 0.00 in0.0 mm
05:20 PM 84.6°F29.2°C 74.1°F23.4°C 71% 4.8 mph SSE7.7 kmh SSE 8.0 mph12.9 kmh 29.76 in1007.8 mb 0.00 in0.0 mm 0.00 in/hr0.0 mm/hr 0.00 in0.0 mm
05:10 PM 84.9°F29.4°C 74.4°F23.6°C 71% 1.1 mph S1.8 kmh S 5.0 mph8.0 kmh 29.76 in1007.8 mb 0.00 in0.0 mm 0.00 in/hr0.0 mm/hr 0.00 in0.0 mm
05:00 PM 85.8°F29.9°C 75.3°F24.1°C 71% 3.0 mph S4.8 kmh S 9.0 mph14.5 kmh 29.76 in1007.8 mb 0.00 in0.0 mm 0.00 in/hr0.0 mm/hr 0.00 in0.0 mm
04:50 PM 86.6°F30.3°C 76.5°F24.7°C 72% 6.2 mph SSE10.0 kmh SSE 9.0 mph14.5 kmh 29.77 in1008.1 mb 0.00 in0.0 mm 0.00 in/hr0.0 mm/hr 0.00 in0.0 mm
04:40 PM 88.1°F31.2°C 76.2°F24.6°C 68% 2.8 mph SW4.5 kmh SW 7.0 mph11.3 kmh 29.77 in1008.1 mb 0.00 in0.0 mm 0.00 in/hr0.0 mm/hr 0.00 in0.0 mm
04:30 PM 88.0°F31.1°C 76.6°F24.8°C 69% 1.5 mph SW2.4 kmh SW 2.0 mph3.2 kmh 29.77 in1008.1 mb 0.00 in0.0 mm 0.00 in/hr0.0 mm/hr 0.00 in0.0 mm
04:20 PM 87.6°F30.9°C 76.2°F24.6°C 69% 2.2 mph SSW3.5 kmh SSW 4.0 mph6.4 kmh 29.78 in1008.5 mb 0.00 in0.0 mm 0.00 in/hr0.0 mm/hr 0.00 in0.0 mm
04:10 PM 87.2°F30.7°C 75.8°F24.3°C 69% 0.2 mph SSW0.3 kmh SSW 1.0 mph1.6 kmh 29.78 in1008.5 mb 0.00 in0.0 mm 0.00 in/hr0.0 mm/hr 0.00 in0.0 mm
04:00 PM 87.8°F31.0°C 75.0°F23.9°C 66% 2.1 mph SSW3.4 kmh SSW 4.0 mph6.4 kmh 29.78 in1008.5 mb 0.00 in0.0 mm 0.00 in/hr0.0 mm/hr 0.00 in0.0 mm
03:50 PM 88.7°F31.5°C 75.0°F23.9°C 64% 2.4 mph SSW3.9 kmh SSW 6.0 mph9.7 kmh 29.79 in1008.8 mb 0.00 in0.0 mm 0.00 in/hr0.0 mm/hr 0.00 in0.0 mm
03:40 PM 89.8°F32.1°C 75.6°F24.2°C 63% 5.3 mph S8.5 kmh S 8.0 mph12.9 kmh 29.79 in1008.8 mb 0.00 in0.0 mm 0.00 in/hr0.0 mm/hr 0.00 in0.0 mm
03:30 PM 89.7°F32.1°C 75.9°F24.4°C 64% 1.3 mph S2.1 kmh S 5.0 mph8.0 kmh 29.79 in1008.8 mb 0.00 in0.0 mm 0.00 in/hr0.0 mm/hr 0.00 in0.0 mm
03:20 PM 89.5°F31.9°C 76.1°F24.5°C 65% 0.9 mph S1.4 kmh S 3.0 mph4.8 kmh 29.79 in1008.8 mb 0.00 in0.0 mm 0.00 in/hr0.0 mm/hr 0.00 in0.0 mm
03:10 PM 89.0°F31.7°C 75.7°F24.3°C 65% 2.7 mph S4.3 kmh S 5.0 mph8.0 kmh 29.80 in1009.1 mb 0.00 in0.0 mm 0.00 in/hr0.0 mm/hr 0.00 in0.0 mm
03:00 PM 89.2°F31.8°C 75.0°F23.9°C 63% 5.1 mph S8.2 kmh S 6.0 mph9.7 kmh 29.82 in1009.8 mb 0.00 in0.0 mm 0.00 in/hr0.0 mm/hr 0.00 in0.0 mm
02:50 PM 89.7°F32.1°C 75.5°F24.2°C 63% 1.4 mph SW2.3 kmh SW 5.0 mph8.0 kmh 29.81 in1009.5 mb 0.00 in0.0 mm 0.00 in/hr0.0 mm/hr 0.00 in0.0 mm
02:40 PM 89.5°F31.9°C 75.7°F24.3°C 64% 3.0 mph SW4.8 kmh SW 6.0 mph9.7 kmh 29.82 in1009.8 mb 0.00 in0.0 mm 0.00 in/hr0.0 mm/hr 0.00 in0.0 mm
02:30 PM 89.4°F31.9°C 75.1°F23.9°C 63% 0.9 mph S1.4 kmh S 5.0 mph8.0 kmh 29.82 in1009.8 mb 0.00 in0.0 mm 0.00 in/hr0.0 mm/hr 0.00 in0.0 mm
02:20 PM 89.0°F31.7°C 76.2°F24.6°C 66% 0.5 mph W0.8 kmh W 6.0 mph9.7 kmh 29.82 in1009.8 mb 0.00 in0.0 mm 0.00 in/hr0.0 mm/hr 0.00 in0.0 mm
02:10 PM 88.6°F31.4°C 73.9°F23.3°C 62% 1.7 mph NW2.7 kmh NW 5.0 mph8.0 kmh 29.82 in1009.8 mb 0.00 in0.0 mm 0.00 in/hr0.0 mm/hr 0.00 in0.0 mm
02:00 PM 88.2°F31.2°C 74.5°F23.6°C 64% 1.8 mph WSW2.9 kmh WSW 4.0 mph6.4 kmh 29.84 in1010.5 mb 0.00 in0.0 mm 0.00 in/hr0.0 mm/hr 0.00 in0.0 mm
01:50 PM 87.9°F31.1°C 74.2°F23.4°C 64% 3.8 mph SW6.1 kmh SW 6.0 mph9.7 kmh 29.84 in1010.5 mb 0.00 in0.0 mm 0.00 in/hr0.0 mm/hr 0.00 in0.0 mm
01:40 PM 87.7°F30.9°C 74.5°F23.6°C 65% 5.3 mph WSW8.5 kmh WSW 7.0 mph11.3 kmh 29.84 in1010.5 mb 0.00 in0.0 mm 0.00 in/hr0.0 mm/hr 0.00 in0.0 mm
01:30 PM 86.3°F30.2°C 75.8°F24.3°C 71% 2.2 mph SW3.5 kmh SW 7.0 mph11.3 kmh 29.84 in1010.5 mb 0.00 in0.0 mm 0.00 in/hr0.0 mm/hr 0.00 in0.0 mm
01:20 PM 85.7°F29.8°C 73.9°F23.3°C 68% 2.4 mph SW3.9 kmh SW 5.0 mph8.0 kmh 29.85 in1010.8 mb 0.00 in0.0 mm 0.00 in/hr0.0 mm/hr 0.00 in0.0 mm
01:10 PM 86.1°F30.1°C 74.3°F23.5°C 68% 4.2 mph S6.8 kmh S 7.0 mph11.3 kmh 29.86 in1011.2 mb 0.00 in0.0 mm 0.00 in/hr0.0 mm/hr 0.00 in0.0 mm
01:00 PM 86.7°F30.4°C 74.8°F23.8°C 68% 5.6 mph SW9.0 kmh SW 11.0 mph17.7 kmh 29.86 in1011.2 mb 0.00 in0.0 mm 0.00 in/hr0.0 mm/hr 0.00 in0.0 mm
12:50 PM 87.2°F30.7°C 74.9°F23.8°C 67% 2.7 mph WSW4.3 kmh WSW 5.0 mph8.0 kmh 29.85 in1010.8 mb 0.00 in0.0 mm 0.00 in/hr0.0 mm/hr 0.00 in0.0 mm
12:40 PM 87.2°F30.7°C 74.9°F23.8°C 67% 1.9 mph WSW3.1 kmh WSW 5.0 mph8.0 kmh 29.86 in1011.2 mb 0.00 in0.0 mm 0.00 in/hr0.0 mm/hr 0.00 in0.0 mm
12:30 PM 86.6°F30.3°C 75.2°F24.0°C 69% 3.1 mph SW5.0 kmh SW 4.0 mph6.4 kmh 29.86 in1011.2 mb 0.00 in0.0 mm 0.00 in/hr0.0 mm/hr 0.00 in0.0 mm
12:20 PM 86.0°F30.0°C 74.2°F23.4°C 68% 4.9 mph SW7.9 kmh SW 5.0 mph8.0 kmh 29.86 in1011.2 mb 0.00 in0.0 mm 0.00 in/hr0.0 mm/hr 0.00 in0.0 mm
12:10 PM 86.2°F30.1°C 74.4°F23.6°C 68% 2.0 mph NW3.2 kmh NW 9.0 mph14.5 kmh 29.87 in1011.5 mb 0.00 in0.0 mm 0.00 in/hr0.0 mm/hr 0.00 in0.0 mm
12:00 PM 86.3°F30.2°C 75.4°F24.1°C 70% 2.2 mph W3.5 kmh W 7.0 mph11.3 kmh 29.88 in1011.9 mb 0.00 in0.0 mm 0.00 in/hr0.0 mm/hr 0.00 in0.0 mm
11:50 AM 86.1°F30.1°C 75.2°F24.0°C 70% 4.0 mph WSW6.4 kmh WSW 6.0 mph9.7 kmh 29.88 in1011.9 mb 0.00 in0.0 mm 0.00 in/hr0.0 mm/hr 0.00 in0.0 mm
11:40 AM 86.1°F30.1°C 75.2°F24.0°C 70% 0.8 mph SW1.3 kmh SW 1.0 mph1.6 kmh 29.88 in1011.9 mb 0.00 in0.0 mm 0.00 in/hr0.0 mm/hr 0.00 in0.0 mm
11:30 AM 85.5°F29.7°C 74.6°F23.7°C 70% 0.4 mph WSW0.6 kmh WSW 2.0 mph3.2 kmh 29.88 in1011.9 mb 0.00 in0.0 mm 0.00 in/hr0.0 mm/hr 0.00 in0.0 mm
11:20 AM 85.2°F29.6°C 75.6°F24.2°C 73% 2.6 mph SW4.2 kmh SW 6.0 mph9.7 kmh 29.89 in1012.2 mb 0.00 in0.0 mm 0.00 in/hr0.0 mm/hr 0.00 in0.0 mm
11:10 AM 84.9°F29.4°C 75.3°F24.1°C 73% 1.4 mph NW2.3 kmh NW 6.0 mph9.7 kmh 29.89 in1012.2 mb 0.00 in0.0 mm 0.00 in/hr0.0 mm/hr 0.00 in0.0 mm
11:00 AM 84.6°F29.2°C 75.0°F23.9°C 73% 2.9 mph NW4.7 kmh NW 5.0 mph8.0 kmh 29.89 in1012.2 mb 0.00 in0.0 mm 0.00 in/hr0.0 mm/hr 0.00 in0.0 mm
10:50 AM 84.3°F29.1°C 75.9°F24.4°C 76% 0.5 mph NNW0.8 kmh NNW 1.0 mph1.6 kmh 29.90 in1012.5 mb 0.00 in0.0 mm 0.00 in/hr0.0 mm/hr 0.00 in0.0 mm
10:40 AM 83.7°F28.7°C 75.3°F24.1°C 76% 1.1 mph WSW1.8 kmh WSW 3.0 mph4.8 kmh 29.90 in1012.5 mb 0.00 in0.0 mm 0.00 in/hr0.0 mm/hr 0.00 in0.0 mm
10:30 AM 83.1°F28.4°C 75.5°F24.2°C 78% 0.9 mph SW1.4 kmh SW 4.0 mph6.4 kmh 29.90 in1012.5 mb 0.00 in0.0 mm 0.00 in/hr0.0 mm/hr 0.00 in0.0 mm
10:20 AM 82.5°F28.1°C 75.3°F24.1°C 79% 1.3 mph SW2.1 kmh SW 4.0 mph6.4 kmh 29.90 in1012.5 mb 0.00 in0.0 mm 0.00 in/hr0.0 mm/hr 0.00 in0.0 mm
10:10 AM 81.9°F27.7°C 74.7°F23.7°C 79% 1.8 mph SW2.9 kmh SW 2.0 mph3.2 kmh 29.89 in1012.2 mb 0.00 in0.0 mm 0.00 in/hr0.0 mm/hr 0.00 in0.0 mm
10:00 AM 81.6°F27.6°C 74.8°F23.8°C 80% 0.5 mph SW0.8 kmh SW 1.0 mph1.6 kmh 29.89 in1012.2 mb 0.00 in0.0 mm 0.00 in/hr0.0 mm/hr 0.00 in0.0 mm
09:50 AM 80.9°F27.2°C 74.9°F23.8°C 82% Calm Calm 1.0 mph1.6 kmh 29.89 in1012.2 mb 0.00 in0.0 mm 0.00 in/hr0.0 mm/hr 0.00 in0.0 mm
09:40 AM 80.1°F26.7°C 73.8°F23.2°C 81% 0.3 mph SW0.5 kmh SW 2.0 mph3.2 kmh 29.89 in1012.2 mb 0.00 in0.0 mm 0.00 in/hr0.0 mm/hr 0.00 in0.0 mm
09:30 AM 79.0°F26.1°C 73.3°F22.9°C 83% Calm Calm 1.0 mph1.6 kmh 29.89 in1012.2 mb 0.00 in0.0 mm 0.00 in/hr0.0 mm/hr 0.00 in0.0 mm
09:20 AM 78.5°F25.8°C 72.9°F22.7°C 83% 0.5 mph SW0.8 kmh SW 1.0 mph1.6 kmh 29.88 in1011.9 mb 0.00 in0.0 mm 0.00 in/hr0.0 mm/hr 0.00 in0.0 mm
09:10 AM 77.8°F25.4°C 72.9°F22.7°C 85% 0.2 mph SW0.3 kmh SW 1.0 mph1.6 kmh 29.88 in1011.9 mb 0.00 in0.0 mm 0.00 in/hr0.0 mm/hr 0.00 in0.0 mm
09:00 AM 77.1°F25.1°C 73.6°F23.1°C 89% Calm Calm -- 29.88 in1011.9 mb 0.00 in0.0 mm 0.00 in/hr0.0 mm/hr 0.00 in0.0 mm
08:50 AM 76.2°F24.6°C 73.1°F22.8°C 90% 0.4 mph SW0.6 kmh SW 3.0 mph4.8 kmh 29.88 in1011.9 mb 0.00 in0.0 mm 0.00 in/hr0.0 mm/hr 0.00 in0.0 mm
08:40 AM 74.9°F23.8°C 73.3°F22.9°C 95% Calm Calm -- 29.88 in1011.9 mb 0.00 in0.0 mm 0.00 in/hr0.0 mm/hr 0.00 in0.0 mm
08:30 AM 73.7°F23.2°C 73.4°F23.0°C 99% 0.2 mph SW0.3 kmh SW 1.0 mph1.6 kmh 29.89 in1012.2 mb 0.00 in0.0 mm 0.00 in/hr0.0 mm/hr 0.00 in0.0 mm
08:20 AM 72.9°F22.7°C 72.9°F22.7°C 100% Calm Calm -- 29.89 in1012.2 mb 0.00 in0.0 mm 0.00 in/hr0.0 mm/hr 0.00 in0.0 mm
08:10 AM 71.9°F22.2°C 71.9°F22.2°C 100% 0.2 mph SW0.3 kmh SW 1.0 mph1.6 kmh 29.89 in1012.2 mb 0.00 in0.0 mm 0.00 in/hr0.0 mm/hr 0.00 in0.0 mm
08:00 AM 71.3°F21.8°C 71.3°F21.8°C 100% Calm Calm -- 29.88 in1011.9 mb 0.00 in0.0 mm 0.00 in/hr0.0 mm/hr 0.00 in0.0 mm
07:50 AM 70.7°F21.5°C 70.7°F21.5°C 100% Calm Calm -- 29.88 in1011.9 mb 0.00 in0.0 mm 0.00 in/hr0.0 mm/hr 0.00 in0.0 mm
07:40 AM 69.6°F20.9°C 69.3°F20.7°C 99% Calm Calm -- 29.88 in1011.9 mb 0.00 in0.0 mm 0.00 in/hr0.0 mm/hr 0.00 in0.0 mm
07:30 AM 69.1°F20.6°C 68.8°F20.4°C 99% Calm Calm -- 29.88 in1011.9 mb 0.00 in0.0 mm 0.00 in/hr0.0 mm/hr 0.00 in0.0 mm
07:20 AM 68.8°F20.4°C 68.5°F20.3°C 99% Calm Calm -- 29.88 in1011.9 mb 0.00 in0.0 mm 0.00 in/hr0.0 mm/hr 0.00 in0.0 mm
07:10 AM 68.9°F20.5°C 68.6°F20.3°C 99% Calm Calm -- 29.88 in1011.9 mb 0.00 in0.0 mm 0.00 in/hr0.0 mm/hr 0.00 in0.0 mm
07:00 AM 68.8°F20.4°C 68.5°F20.3°C 99% Calm Calm -- 29.88 in1011.9 mb 0.00 in0.0 mm 0.00 in/hr0.0 mm/hr 0.00 in0.0 mm
06:50 AM 68.7°F20.4°C 68.4°F20.2°C 99% Calm Calm -- 29.87 in1011.5 mb 0.00 in0.0 mm 0.00 in/hr0.0 mm/hr 0.00 in0.0 mm
06:40 AM 68.8°F20.4°C 68.5°F20.3°C 99% Calm Calm -- 29.87 in1011.5 mb 0.00 in0.0 mm 0.00 in/hr0.0 mm/hr 0.00 in0.0 mm
06:30 AM 69.0°F20.6°C 68.7°F20.4°C 99% Calm Calm -- 29.86 in1011.2 mb 0.00 in0.0 mm 0.00 in/hr0.0 mm/hr 0.00 in0.0 mm
06:20 AM 69.2°F20.7°C 68.9°F20.5°C 99% Calm Calm -- 29.86 in1011.2 mb 0.00 in0.0 mm 0.00 in/hr0.0 mm/hr 0.00 in0.0 mm
06:10 AM 69.3°F20.7°C 69.0°F20.6°C 99% Calm Calm -- 29.86 in1011.2 mb 0.00 in0.0 mm 0.00 in/hr0.0 mm/hr 0.00 in0.0 mm
06:00 AM 69.4°F20.8°C 69.1°F20.6°C 99% Calm Calm -- 29.86 in1011.2 mb 0.00 in0.0 mm 0.00 in/hr0.0 mm/hr 0.00 in0.0 mm
05:50 AM 69.5°F20.8°C 69.2°F20.7°C 99% Calm Calm -- 29.85 in1010.8 mb 0.00 in0.0 mm 0.00 in/hr0.0 mm/hr 0.00 in0.0 mm
05:40 AM 69.8°F21.0°C 69.5°F20.8°C 99% Calm Calm -- 29.85 in1010.8 mb 0.00 in0.0 mm 0.00 in/hr0.0 mm/hr 0.00 in0.0 mm
05:30 AM 70.0°F21.1°C 69.7°F20.9°C 99% Calm Calm -- 29.85 in1010.8 mb 0.00 in0.0 mm 0.00 in/hr0.0 mm/hr 0.00 in0.0 mm
05:20 AM 70.2°F21.2°C 69.9°F21.1°C 99% Calm Calm -- 29.85 in1010.8 mb 0.00 in0.0 mm 0.00 in/hr0.0 mm/hr 0.00 in0.0 mm
05:10 AM 70.3°F21.3°C 70.0°F21.1°C 99% Calm Calm -- 29.85 in1010.8 mb 0.00 in0.0 mm 0.00 in/hr0.0 mm/hr 0.00 in0.0 mm
05:00 AM 70.2°F21.2°C 69.9°F21.1°C 99% Calm Calm -- 29.85 in1010.8 mb 0.00 in0.0 mm 0.00 in/hr0.0 mm/hr 0.00 in0.0 mm
04:50 AM 70.0°F21.1°C 69.7°F20.9°C 99% Calm Calm -- 29.85 in1010.8 mb 0.00 in0.0 mm 0.00 in/hr0.0 mm/hr 0.00 in0.0 mm
04:40 AM 69.7°F20.9°C 69.5°F20.8°C 99% Calm Calm -- 29.85 in1010.8 mb 0.00 in0.0 mm 0.00 in/hr0.0 mm/hr 0.00 in0.0 mm
04:30 AM 69.6°F20.9°C 69.0°F20.6°C 98% Calm Calm -- 29.85 in1010.8 mb 0.00 in0.0 mm 0.00 in/hr0.0 mm/hr 0.00 in0.0 mm
04:20 AM 69.7°F20.9°C 69.1°F20.6°C 98% Calm Calm -- 29.85 in1010.8 mb 0.00 in0.0 mm 0.00 in/hr0.0 mm/hr 0.00 in0.0 mm
04:10 AM 69.9°F21.1°C 69.3°F20.7°C 98% Calm Calm -- 29.86 in1011.2 mb 0.00 in0.0 mm 0.00 in/hr0.0 mm/hr 0.00 in0.0 mm
04:00 AM 70.2°F21.2°C 69.6°F20.9°C 98% Calm Calm -- 29.86 in1011.2 mb 0.00 in0.0 mm 0.00 in/hr0.0 mm/hr 0.00 in0.0 mm
03:50 AM 70.3°F21.3°C 69.7°F20.9°C 98% Calm Calm -- 29.86 in1011.2 mb 0.00 in0.0 mm 0.00 in/hr0.0 mm/hr 0.00 in0.0 mm
03:40 AM 70.4°F21.3°C 69.8°F21.0°C 98% Calm Calm -- 29.86 in1011.2 mb 0.00 in0.0 mm 0.00 in/hr0.0 mm/hr 0.00 in0.0 mm
03:30 AM 70.7°F21.5°C 70.1°F21.2°C 98% Calm Calm -- 29.86 in1011.2 mb 0.00 in0.0 mm 0.00 in/hr0.0 mm/hr 0.00 in0.0 mm
03:20 AM 70.9°F21.6°C 70.3°F21.3°C 98% Calm Calm -- 29.86 in1011.2 mb 0.00 in0.0 mm 0.00 in/hr0.0 mm/hr 0.00 in0.0 mm
03:10 AM 71.0°F21.7°C 70.4°F21.3°C 98% Calm Calm -- 29.86 in1011.2 mb 0.00 in0.0 mm 0.00 in/hr0.0 mm/hr 0.00 in0.0 mm
03:00 AM 71.2°F21.8°C 70.6°F21.4°C 98% Calm Calm -- 29.86 in1011.2 mb 0.00 in0.0 mm 0.00 in/hr0.0 mm/hr 0.00 in0.0 mm
02:50 AM 71.3°F21.8°C 70.7°F21.5°C 98% Calm Calm -- 29.86 in1011.2 mb 0.00 in0.0 mm 0.00 in/hr0.0 mm/hr 0.00 in0.0 mm
02:40 AM 71.5°F21.9°C 70.9°F21.6°C 98% Calm Calm -- 29.86 in1011.2 mb 0.00 in0.0 mm 0.00 in/hr0.0 mm/hr 0.00 in0.0 mm
02:30 AM 71.6°F22.0°C 70.7°F21.5°C 97% Calm Calm -- 29.87 in1011.5 mb 0.00 in0.0 mm 0.00 in/hr0.0 mm/hr 0.00 in0.0 mm
02:20 AM 71.7°F22.1°C 70.8°F21.6°C 97% Calm Calm -- 29.86 in1011.2 mb 0.00 in0.0 mm 0.00 in/hr0.0 mm/hr 0.00 in0.0 mm
02:10 AM 72.1°F22.3°C 71.2°F21.8°C 97% Calm Calm -- 29.86 in1011.2 mb 0.00 in0.0 mm 0.00 in/hr0.0 mm/hr 0.00 in0.0 mm
02:00 AM 72.4°F22.4°C 71.5°F21.9°C 97% Calm Calm -- 29.87 in1011.5 mb 0.00 in0.0 mm 0.00 in/hr0.0 mm/hr 0.00 in0.0 mm
01:50 AM 72.7°F22.6°C 71.8°F22.1°C 97% Calm Calm -- 29.87 in1011.5 mb 0.00 in0.0 mm 0.00 in/hr0.0 mm/hr 0.00 in0.0 mm
01:40 AM 72.8°F22.7°C 72.2°F22.3°C 98% Calm Calm -- 29.87 in1011.5 mb 0.00 in0.0 mm 0.00 in/hr0.0 mm/hr 0.00 in0.0 mm
01:30 AM 72.7°F22.6°C 72.1°F22.3°C 98% Calm Calm -- 29.86 in1011.2 mb 0.00 in0.0 mm 0.00 in/hr0.0 mm/hr 0.00 in0.0 mm
01:20 AM 72.7°F22.6°C 71.8°F22.1°C 97% Calm Calm -- 29.86 in1011.2 mb 0.00 in0.0 mm 0.00 in/hr0.0 mm/hr 0.00 in0.0 mm
01:10 AM 72.9°F22.7°C 72.0°F22.2°C 97% Calm Calm -- 29.87 in1011.5 mb 0.00 in0.0 mm 0.00 in/hr0.0 mm/hr 0.00 in0.0 mm
01:00 AM 72.9°F22.7°C 72.0°F22.2°C 97% Calm Calm -- 29.87 in1011.5 mb 0.00 in0.0 mm 0.00 in/hr0.0 mm/hr 0.00 in0.0 mm
12:50 AM 73.0°F22.8°C 72.1°F22.3°C 97% Calm Calm -- 29.87 in1011.5 mb 0.00 in0.0 mm 0.00 in/hr0.0 mm/hr 0.00 in0.0 mm
12:40 AM 73.2°F22.9°C 72.3°F22.4°C 97% Calm Calm -- 29.87 in1011.5 mb 0.00 in0.0 mm 0.00 in/hr0.0 mm/hr 0.00 in0.0 mm
12:30 AM 73.4°F23.0°C 72.5°F22.5°C 97% Calm Calm -- 29.88 in1011.9 mb 0.00 in0.0 mm 0.00 in/hr0.0 mm/hr 0.00 in0.0 mm
12:20 AM 73.4°F23.0°C 72.5°F22.5°C 97% Calm Calm -- 29.88 in1011.9 mb 0.00 in0.0 mm 0.00 in/hr0.0 mm/hr 0.00 in0.0 mm
12:10 AM 73.2°F22.9°C 72.0°F22.2°C 96% Calm Calm -- 29.88 in1011.9 mb 0.00 in0.0 mm 0.00 in/hr0.0 mm/hr 0.00 in0.0 mm
12:00 AM 73.4°F23.0°C 72.2°F22.3°C 96% Calm Calm -- 29.88 in1011.9 mb 0.00 in0.0 mm 0.00 in/hr0.0 mm/hr 0.00 in0.0 mm